HVN329 VVTS-VVDN
Flight info
| Callsign | HVN329 |
|---|---|
| Flight time | 0h 52m |
| Altitude | 30000 |
| Route | ANTRI2F PATMA Q2 SADAS/K0809F290 Q7 MUMGA Q1 SADIN SADIN1D |
| Aircraft | A20N/M-SDE2E3FGHIJ1RWXY/LB1D1 |
Departure
| Time | 2026-04-19 03:44 |
|---|---|
| Airport | Tan Son Nhat International Airport (VVTS) |
Arrival
| Time | 2026-04-19 04:37 |
|---|---|
| Airport | Da Nang International Airport (VVDN) |
| Time | Latitude | Longitude | Altitude | Speed | Heading |
|---|---|---|---|---|---|
| 2026-04-19 03:19 | 10.81232 | 106.64908 | 25 ft | 0 kts | 160° |
| 2026-04-19 03:37 | 10.81222 | 106.64912 | 25 ft | 5 kts | 157° |
| 2026-04-19 03:38 | 10.81201 | 106.64973 | 25 ft | 14 kts | 80° |
| 2026-04-19 03:38 | 10.81231 | 106.65081 | 27 ft | 18 kts | 71° |
| 2026-04-19 03:38 | 10.81282 | 106.65221 | 27 ft | 24 kts | 70° |
| 2026-04-19 03:38 | 10.81348 | 106.65400 | 30 ft | 27 kts | 69° |
| 2026-04-19 03:39 | 10.81418 | 106.65586 | 30 ft | 28 kts | 69° |
| 2026-04-19 03:39 | 10.81501 | 106.65768 | 28 ft | 27 kts | 35° |
| 2026-04-19 03:39 | 10.81598 | 106.65794 | 28 ft | 0 kts | 351° |
| 2026-04-19 03:40 | 10.81606 | 106.65794 | 28 ft | 4 kts | 0° |
| 2026-04-19 03:40 | 10.81656 | 106.65831 | 28 ft | 13 kts | 61° |
| 2026-04-19 03:41 | 10.81703 | 106.65952 | 28 ft | 22 kts | 69° |
| 2026-04-19 03:41 | 10.81767 | 106.66122 | 28 ft | 26 kts | 69° |
| 2026-04-19 03:41 | 10.81834 | 106.66301 | 28 ft | 27 kts | 70° |
| 2026-04-19 03:41 | 10.81903 | 106.66483 | 28 ft | 28 kts | 69° |
| 2026-04-19 03:42 | 10.81973 | 106.66666 | 29 ft | 27 kts | 69° |
| 2026-04-19 03:42 | 10.82037 | 106.66836 | 32 ft | 18 kts | 69° |
| 2026-04-19 03:42 | 10.82049 | 106.66862 | 32 ft | 0 kts | 59° |
| 2026-04-19 03:42 | 10.82052 | 106.66868 | 32 ft | 5 kts | 55° |
| 2026-04-19 03:43 | 10.82120 | 106.66933 | 33 ft | 16 kts | 39° |
| 2026-04-19 03:43 | 10.82240 | 106.67006 | 35 ft | 22 kts | 15° |
| 2026-04-19 03:43 | 10.82345 | 106.66918 | 33 ft | 21 kts | 295° |
| 2026-04-19 03:43 | 10.82274 | 106.66698 | 32 ft | 61 kts | 247° |
| 2026-04-19 03:44 | 10.82034 | 106.66070 | 29 ft | 126 kts | 249° |
| 2026-04-19 03:44 | 10.81657 | 106.65066 | 128 ft | 164 kts | 248° |
| 2026-04-19 03:44 | 10.81294 | 106.63991 | 557 ft | 171 kts | 249° |
| 2026-04-19 03:44 | 10.80906 | 106.62904 | 1089 ft | 173 kts | 247° |
| 2026-04-19 03:45 | 10.80460 | 106.61758 | 1666 ft | 175 kts | 246° |
| 2026-04-19 03:45 | 10.79999 | 106.60579 | 2065 ft | 183 kts | 247° |
| 2026-04-19 03:45 | 10.79508 | 106.59302 | 2324 ft | 199 kts | 248° |
| 2026-04-19 03:45 | 10.78988 | 106.57930 | 2618 ft | 215 kts | 248° |
| 2026-04-19 03:46 | 10.78589 | 106.56409 | 2874 ft | 234 kts | 271° |
| 2026-04-19 03:46 | 10.79129 | 106.54780 | 3114 ft | 252 kts | 311° |
| 2026-04-19 03:46 | 10.80590 | 106.53682 | 3475 ft | 265 kts | 344° |
| 2026-04-19 03:46 | 10.82451 | 106.53613 | 3979 ft | 269 kts | 19° |
| 2026-04-19 03:47 | 10.84028 | 106.54590 | 4707 ft | 266 kts | 43° |
| 2026-04-19 03:47 | 10.85423 | 106.55836 | 5446 ft | 267 kts | 40° |
| 2026-04-19 03:47 | 10.86863 | 106.57053 | 6147 ft | 269 kts | 39° |
| 2026-04-19 03:47 | 10.88328 | 106.58273 | 6868 ft | 270 kts | 39° |
| 2026-04-19 03:48 | 10.89783 | 106.59483 | 7556 ft | 272 kts | 40° |
| 2026-04-19 03:48 | 10.91259 | 106.60714 | 8215 ft | 274 kts | 40° |
| 2026-04-19 03:48 | 10.92755 | 106.61965 | 8859 ft | 276 kts | 40° |
| 2026-04-19 03:48 | 10.94234 | 106.63204 | 9486 ft | 277 kts | 40° |
| 2026-04-19 03:49 | 10.95747 | 106.64475 | 10076 ft | 280 kts | 40° |
| 2026-04-19 03:49 | 10.97293 | 106.65775 | 10427 ft | 293 kts | 40° |
| 2026-04-19 03:49 | 10.98927 | 106.67148 | 10688 ft | 307 kts | 40° |
| 2026-04-19 03:49 | 11.00635 | 106.68583 | 10933 ft | 322 kts | 40° |
| 2026-04-19 03:50 | 11.02408 | 106.70073 | 11167 ft | 336 kts | 40° |
| 2026-04-19 03:50 | 11.04291 | 106.71653 | 11407 ft | 349 kts | 40° |
| 2026-04-19 03:50 | 11.06216 | 106.73270 | 11647 ft | 361 kts | 39° |
| 2026-04-19 03:50 | 11.08189 | 106.74927 | 12043 ft | 368 kts | 39° |
| 2026-04-19 03:51 | 11.10219 | 106.76633 | 12560 ft | 370 kts | 39° |
| 2026-04-19 03:51 | 11.12235 | 106.78328 | 13002 ft | 375 kts | 39° |
| 2026-04-19 03:51 | 11.14276 | 106.80043 | 13447 ft | 379 kts | 39° |
| 2026-04-19 03:51 | 11.16379 | 106.81809 | 13950 ft | 381 kts | 39° |
| 2026-04-19 03:52 | 11.18475 | 106.83572 | 14437 ft | 384 kts | 39° |
| 2026-04-19 03:52 | 11.20572 | 106.85335 | 14899 ft | 387 kts | 39° |
| 2026-04-19 03:52 | 11.22729 | 106.87151 | 15367 ft | 389 kts | 39° |
| 2026-04-19 03:52 | 11.24857 | 106.88940 | 15817 ft | 392 kts | 39° |
| 2026-04-19 03:53 | 11.27008 | 106.90749 | 16255 ft | 395 kts | 39° |
| 2026-04-19 03:53 | 11.29158 | 106.92558 | 16685 ft | 398 kts | 39° |
| 2026-04-19 03:53 | 11.31331 | 106.94388 | 17093 ft | 401 kts | 39° |
| 2026-04-19 03:53 | 11.33579 | 106.96282 | 17516 ft | 404 kts | 39° |
| 2026-04-19 03:54 | 11.35863 | 106.98207 | 17945 ft | 406 kts | 39° |
| 2026-04-19 03:54 | 11.38142 | 107.00129 | 18351 ft | 409 kts | 39° |
| 2026-04-19 03:54 | 11.40445 | 107.02071 | 18770 ft | 411 kts | 39° |
| 2026-04-19 03:54 | 11.42718 | 107.03989 | 19166 ft | 414 kts | 39° |
| 2026-04-19 03:55 | 11.45009 | 107.05921 | 19550 ft | 416 kts | 39° |
| 2026-04-19 03:55 | 11.47278 | 107.07835 | 19919 ft | 419 kts | 39° |
| 2026-04-19 03:55 | 11.49587 | 107.09782 | 20301 ft | 421 kts | 39° |
| 2026-04-19 03:55 | 11.51911 | 107.11743 | 20670 ft | 424 kts | 39° |
| 2026-04-19 03:56 | 11.54218 | 107.13690 | 21036 ft | 426 kts | 38° |
| 2026-04-19 03:56 | 11.56558 | 107.15665 | 21394 ft | 428 kts | 38° |
| 2026-04-19 03:56 | 11.58881 | 107.17626 | 21753 ft | 431 kts | 38° |
| 2026-04-19 03:56 | 11.61253 | 107.19630 | 22101 ft | 433 kts | 38° |
| 2026-04-19 03:57 | 11.63708 | 107.21703 | 22465 ft | 435 kts | 38° |
| 2026-04-19 03:57 | 11.66154 | 107.23769 | 22812 ft | 438 kts | 38° |
| 2026-04-19 03:57 | 11.68684 | 107.25906 | 23155 ft | 440 kts | 38° |
| 2026-04-19 03:57 | 11.71149 | 107.27991 | 23488 ft | 443 kts | 38° |
| 2026-04-19 03:58 | 11.73617 | 107.30077 | 23808 ft | 445 kts | 38° |
| 2026-04-19 03:58 | 11.76104 | 107.32181 | 24121 ft | 447 kts | 38° |
| 2026-04-19 03:58 | 11.78567 | 107.34264 | 24417 ft | 450 kts | 38° |
| 2026-04-19 03:58 | 11.81033 | 107.36350 | 24700 ft | 452 kts | 38° |
| 2026-04-19 03:59 | 11.83475 | 107.38417 | 24974 ft | 454 kts | 38° |
| 2026-04-19 03:59 | 11.86010 | 107.40562 | 25254 ft | 457 kts | 38° |
| 2026-04-19 03:59 | 11.88546 | 107.42711 | 25525 ft | 459 kts | 38° |
| 2026-04-19 03:59 | 11.91108 | 107.44881 | 25796 ft | 461 kts | 38° |
| 2026-04-19 04:00 | 11.93628 | 107.47016 | 26060 ft | 463 kts | 38° |
| 2026-04-19 04:00 | 11.96165 | 107.49167 | 26324 ft | 465 kts | 38° |
| 2026-04-19 04:00 | 11.98688 | 107.51305 | 26574 ft | 467 kts | 38° |
| 2026-04-19 04:00 | 12.01279 | 107.53502 | 26831 ft | 469 kts | 38° |
| 2026-04-19 04:01 | 12.03877 | 107.55706 | 27128 ft | 469 kts | 38° |
| 2026-04-19 04:01 | 12.09056 | 107.60101 | 27774 ft | 468 kts | 38° |
| 2026-04-19 04:01 | 12.11568 | 107.62233 | 28067 ft | 468 kts | 38° |
| 2026-04-19 04:02 | 12.14136 | 107.64414 | 28341 ft | 468 kts | 38° |
| 2026-04-19 04:02 | 12.16678 | 107.66573 | 28598 ft | 468 kts | 38° |
| 2026-04-19 04:02 | 12.19210 | 107.68724 | 28882 ft | 468 kts | 38° |
| 2026-04-19 04:02 | 12.21795 | 107.70921 | 29180 ft | 467 kts | 38° |
| 2026-04-19 04:03 | 12.24386 | 107.73124 | 29439 ft | 468 kts | 38° |
| 2026-04-19 04:03 | 12.27038 | 107.75378 | 29653 ft | 469 kts | 38° |
| 2026-04-19 04:03 | 12.29739 | 107.77542 | 29817 ft | 470 kts | 32° |
| 2026-04-19 04:03 | 12.32636 | 107.79215 | 29997 ft | 468 kts | 22° |
| 2026-04-19 04:04 | 12.35742 | 107.80389 | 30216 ft | 465 kts | 13° |
| 2026-04-19 04:04 | 12.39110 | 107.81069 | 30416 ft | 463 kts | 4° |
| 2026-04-19 04:04 | 12.42526 | 107.81257 | 30611 ft | 462 kts | 359° |
| 2026-04-19 04:04 | 12.45863 | 107.81316 | 30780 ft | 463 kts | 359° |
| 2026-04-19 04:05 | 12.49235 | 107.81361 | 30915 ft | 464 kts | 359° |
| 2026-04-19 04:05 | 12.52626 | 107.81408 | 30974 ft | 466 kts | 359° |
| 2026-04-19 04:05 | 12.59397 | 107.81522 | 30977 ft | 466 kts | 359° |
| 2026-04-19 04:06 | 12.66122 | 107.81649 | 30968 ft | 466 kts | 359° |
| 2026-04-19 04:06 | 12.72991 | 107.81783 | 30958 ft | 465 kts | 359° |
| 2026-04-19 04:07 | 12.79869 | 107.81918 | 30949 ft | 464 kts | 359° |
| 2026-04-19 04:07 | 12.86735 | 107.82054 | 30947 ft | 464 kts | 359° |
| 2026-04-19 04:08 | 12.93339 | 107.82185 | 30938 ft | 464 kts | 360° |
| 2026-04-19 04:08 | 12.99880 | 107.82313 | 30934 ft | 464 kts | 360° |
| 2026-04-19 04:09 | 13.06429 | 107.82443 | 30933 ft | 464 kts | 360° |
| 2026-04-19 04:09 | 13.13021 | 107.82573 | 30927 ft | 464 kts | 359° |
| 2026-04-19 04:10 | 13.19691 | 107.82703 | 30923 ft | 464 kts | 359° |
| 2026-04-19 04:10 | 13.26267 | 107.82926 | 30918 ft | 464 kts | 4° |
| 2026-04-19 04:11 | 13.32737 | 107.84045 | 30925 ft | 466 kts | 13° |
| 2026-04-19 04:11 | 13.38965 | 107.86239 | 30931 ft | 469 kts | 22° |
| 2026-04-19 04:12 | 13.44994 | 107.89080 | 30945 ft | 470 kts | 23° |
| 2026-04-19 04:12 | 13.51028 | 107.91972 | 30955 ft | 469 kts | 23° |
| 2026-04-19 04:13 | 13.57049 | 107.94850 | 30970 ft | 469 kts | 23° |
| 2026-04-19 04:13 | 13.63053 | 107.97714 | 30981 ft | 470 kts | 23° |
| 2026-04-19 04:14 | 13.69036 | 108.00566 | 30997 ft | 470 kts | 23° |
| 2026-04-19 04:14 | 13.75044 | 108.03433 | 31006 ft | 470 kts | 23° |
| 2026-04-19 04:15 | 13.81079 | 108.06314 | 31013 ft | 470 kts | 23° |
| 2026-04-19 04:15 | 13.87121 | 108.09200 | 31022 ft | 470 kts | 23° |
| 2026-04-19 04:16 | 13.93129 | 108.12061 | 31026 ft | 469 kts | 22° |
| 2026-04-19 04:16 | 13.99389 | 108.14290 | 31021 ft | 468 kts | 12° |
| 2026-04-19 04:17 | 14.05838 | 108.15423 | 31024 ft | 466 kts | 3° |
| 2026-04-19 04:17 | 14.12383 | 108.15670 | 31028 ft | 465 kts | 359° |
| 2026-04-19 04:18 | 14.18962 | 108.15783 | 31039 ft | 465 kts | 359° |
| 2026-04-19 04:18 | 14.25544 | 108.15912 | 31044 ft | 464 kts | 360° |
| 2026-04-19 04:19 | 14.32122 | 108.16054 | 31047 ft | 464 kts | 360° |
| 2026-04-19 04:19 | 14.38722 | 108.16203 | 31044 ft | 465 kts | 360° |
| 2026-04-19 04:20 | 14.45297 | 108.16350 | 31044 ft | 465 kts | 359° |
| 2026-04-19 04:20 | 14.48623 | 108.16424 | 30940 ft | 461 kts | 359° |
| 2026-04-19 04:20 | 14.52003 | 108.16498 | 30214 ft | 460 kts | 360° |
| 2026-04-19 04:21 | 14.55310 | 108.16567 | 28675 ft | 465 kts | 0° |
| 2026-04-19 04:21 | 14.58698 | 108.16637 | 26727 ft | 474 kts | 0° |
| 2026-04-19 04:21 | 14.62170 | 108.16713 | 24723 ft | 481 kts | 1° |
| 2026-04-19 04:21 | 14.65622 | 108.16790 | 23596 ft | 478 kts | 1° |
| 2026-04-19 04:22 | 14.69030 | 108.16867 | 23278 ft | 461 kts | 1° |
| 2026-04-19 04:22 | 14.72273 | 108.16941 | 22981 ft | 448 kts | 1° |
| 2026-04-19 04:22 | 14.75426 | 108.17011 | 22636 ft | 443 kts | 1° |
| 2026-04-19 04:22 | 14.78528 | 108.17080 | 22201 ft | 440 kts | 1° |
| 2026-04-19 04:23 | 14.81632 | 108.17149 | 21712 ft | 437 kts | 1° |
| 2026-04-19 04:23 | 14.84752 | 108.17218 | 21174 ft | 433 kts | 1° |
| 2026-04-19 04:23 | 14.87872 | 108.17287 | 20603 ft | 430 kts | 1° |
| 2026-04-19 04:23 | 14.90877 | 108.17354 | 20031 ft | 428 kts | 1° |
| 2026-04-19 04:24 | 14.93850 | 108.17419 | 19463 ft | 427 kts | 1° |
| 2026-04-19 04:24 | 14.96883 | 108.17486 | 18891 ft | 425 kts | 1° |
| 2026-04-19 04:24 | 14.99898 | 108.17551 | 18261 ft | 424 kts | 1° |
| 2026-04-19 04:24 | 15.02840 | 108.17615 | 17648 ft | 423 kts | 0° |
| 2026-04-19 04:25 | 15.05826 | 108.17683 | 17051 ft | 421 kts | 0° |
| 2026-04-19 04:25 | 15.08776 | 108.17747 | 16478 ft | 418 kts | 1° |
| 2026-04-19 04:25 | 15.11701 | 108.17811 | 15970 ft | 413 kts | 1° |
| 2026-04-19 04:25 | 15.14567 | 108.17873 | 15499 ft | 409 kts | 1° |
| 2026-04-19 04:26 | 15.17432 | 108.17935 | 14984 ft | 404 kts | 1° |
| 2026-04-19 04:26 | 15.20268 | 108.17997 | 14499 ft | 400 kts | 1° |
| 2026-04-19 04:26 | 15.23041 | 108.18057 | 14014 ft | 395 kts | 1° |
| 2026-04-19 04:26 | 15.25803 | 108.18117 | 13511 ft | 392 kts | 1° |
| 2026-04-19 04:27 | 15.28537 | 108.18176 | 13034 ft | 388 kts | 1° |
| 2026-04-19 04:27 | 15.31248 | 108.18235 | 12899 ft | 372 kts | 1° |
| 2026-04-19 04:27 | 15.33814 | 108.18291 | 12796 ft | 360 kts | 1° |
| 2026-04-19 04:27 | 15.36394 | 108.18346 | 12619 ft | 359 kts | 1° |
| 2026-04-19 04:28 | 15.38945 | 108.18401 | 12530 ft | 358 kts | 1° |
| 2026-04-19 04:28 | 15.41507 | 108.18457 | 12453 ft | 357 kts | 1° |
| 2026-04-19 04:28 | 15.44057 | 108.18513 | 12351 ft | 357 kts | 1° |
| 2026-04-19 04:28 | 15.46583 | 108.18568 | 12246 ft | 352 kts | 1° |
| 2026-04-19 04:29 | 15.48993 | 108.18620 | 12163 ft | 327 kts | 1° |
| 2026-04-19 04:29 | 15.51305 | 108.18736 | 11955 ft | 323 kts | 5° |
| 2026-04-19 04:29 | 15.53590 | 108.18952 | 11601 ft | 318 kts | 5° |
| 2026-04-19 04:29 | 15.55882 | 108.19186 | 11244 ft | 314 kts | 6° |
| 2026-04-19 04:30 | 15.58143 | 108.19418 | 10615 ft | 310 kts | 6° |
| 2026-04-19 04:30 | 15.60351 | 108.19640 | 9845 ft | 309 kts | 6° |
| 2026-04-19 04:30 | 15.62558 | 108.19859 | 9124 ft | 305 kts | 6° |
| 2026-04-19 04:30 | 15.64725 | 108.20076 | 8522 ft | 304 kts | 6° |
| 2026-04-19 04:31 | 15.66874 | 108.20290 | 7962 ft | 303 kts | 6° |
| 2026-04-19 04:31 | 15.69020 | 108.20503 | 7390 ft | 301 kts | 6° |
| 2026-04-19 04:31 | 15.71123 | 108.20711 | 6864 ft | 297 kts | 6° |
| 2026-04-19 04:31 | 15.73188 | 108.20915 | 6401 ft | 292 kts | 6° |
| 2026-04-19 04:32 | 15.75197 | 108.21113 | 5930 ft | 284 kts | 6° |
| 2026-04-19 04:32 | 15.77199 | 108.21310 | 5426 ft | 277 kts | 6° |
| 2026-04-19 04:32 | 15.79137 | 108.21501 | 4909 ft | 272 kts | 6° |
| 2026-04-19 04:32 | 15.81057 | 108.21690 | 4427 ft | 267 kts | 6° |
| 2026-04-19 04:33 | 15.82921 | 108.21874 | 4037 ft | 262 kts | 6° |
| 2026-04-19 04:33 | 15.84730 | 108.22053 | 3660 ft | 257 kts | 6° |
| 2026-04-19 04:33 | 15.86532 | 108.22231 | 3296 ft | 253 kts | 6° |
| 2026-04-19 04:33 | 15.88301 | 108.22199 | 3000 ft | 250 kts | 355° |
| 2026-04-19 04:34 | 15.90044 | 108.21963 | 2740 ft | 247 kts | 353° |
| 2026-04-19 04:34 | 15.91749 | 108.21703 | 2330 ft | 246 kts | 353° |
| 2026-04-19 04:34 | 15.93473 | 108.21440 | 1822 ft | 244 kts | 354° |
| 2026-04-19 04:34 | 15.95130 | 108.21184 | 1437 ft | 231 kts | 354° |
| 2026-04-19 04:35 | 15.96656 | 108.20956 | 1247 ft | 210 kts | 354° |
| 2026-04-19 04:35 | 15.98087 | 108.20750 | 1030 ft | 197 kts | 354° |
| 2026-04-19 04:35 | 15.99424 | 108.20557 | 785 ft | 185 kts | 354° |
| 2026-04-19 04:35 | 16.00665 | 108.20376 | 530 ft | 173 kts | 354° |
| 2026-04-19 04:36 | 16.01837 | 108.20203 | 267 ft | 161 kts | 354° |
| 2026-04-19 04:36 | 16.02919 | 108.20047 | 110 ft | 153 kts | 354° |
| 2026-04-19 04:36 | 16.03944 | 108.19904 | 61 ft | 131 kts | 353° |
| 2026-04-19 04:36 | 16.04569 | 108.19816 | 60 ft | 55 kts | 348° |
| 2026-04-19 04:37 | 16.04838 | 108.19791 | 57 ft | 25 kts | 19° |
| 2026-04-19 04:37 | 16.04896 | 108.19925 | 55 ft | 16 kts | 80° |
| 2026-04-19 04:37 | 16.04913 | 108.20044 | 53 ft | 15 kts | 80° |
| 2026-04-19 04:37 | 16.04937 | 108.20149 | 52 ft | 13 kts | 80° |
| 2026-04-19 04:38 | 16.04960 | 108.20243 | 53 ft | 11 kts | 43° |
| 2026-04-19 04:38 | 16.05032 | 108.20223 | 52 ft | 12 kts | 301° |
| 2026-04-19 04:38 | 16.05093 | 108.20147 | 51 ft | 13 kts | 327° |
| 2026-04-19 04:38 | 16.05164 | 108.20161 | 51 ft | 7 kts | 70° |
| 2026-04-19 04:39 | 16.05170 | 108.20188 | 51 ft | 3 kts | 83° |
| 2026-04-19 04:39 | 16.05172 | 108.20209 | 51 ft | 0 kts | 82° |
| 2026-04-19 04:39 | 16.05173 | 108.20212 | 51 ft | 0 kts | 82° |
| 2026-04-19 04:39 | 16.05173 | 108.20216 | 51 ft | 0 kts | 82° |